createdAt,value
2018-11-13T00:02:00.427Z,101868.50
2018-11-13T00:04:28.917Z,101875.16
2018-11-13T00:06:57.249Z,101873.38
2018-11-13T00:09:25.675Z,101881.45
2018-11-13T00:11:54.115Z,101880.95
2018-11-13T00:14:22.566Z,101878.72
2018-11-13T00:16:51.030Z,101891.41
2018-11-13T00:19:19.468Z,101889.94
2018-11-13T00:21:47.843Z,101884.19
2018-11-13T00:24:19.033Z,101888.01
2018-11-13T00:26:48.131Z,101890.55
2018-11-13T00:29:16.549Z,101883.91
2018-11-13T00:31:45.103Z,101880.88
2018-11-13T00:34:13.892Z,101895.69
2018-11-13T00:36:42.861Z,101894.37
2018-11-13T00:39:13.235Z,101899.31
2018-11-13T00:41:41.580Z,101905.30
2018-11-13T00:44:10.606Z,101912.97
2018-11-13T00:46:39.342Z,101907.03
2018-11-13T00:49:07.652Z,101901.94
2018-11-13T00:51:36.977Z,101894.33
2018-11-13T00:54:05.482Z,101896.78
2018-11-13T00:56:33.952Z,101903.86
2018-11-13T00:59:02.551Z,101903.72
2018-11-13T01:01:30.965Z,101909.25
2018-11-13T01:04:00.529Z,101911.08
2018-11-13T01:06:29.522Z,101911.79
2018-11-13T01:08:59.171Z,101912.11
2018-11-13T01:11:28.446Z,101902.61
2018-11-13T01:13:56.737Z,101911.72
2018-11-13T01:16:25.078Z,101908.45
2018-11-13T01:18:53.654Z,101911.94
2018-11-13T01:21:22.006Z,101911.47
2018-11-13T01:23:50.463Z,101909.50
2018-11-13T01:26:18.847Z,101913.78
2018-11-13T01:28:48.199Z,101912.58
2018-11-13T01:31:16.817Z,101909.56
2018-11-13T01:33:45.225Z,101908.02
2018-11-13T01:36:13.530Z,101908.56
2018-11-13T01:38:41.968Z,101919.06
2018-11-13T01:41:10.404Z,101923.00
2018-11-13T01:43:39.395Z,101908.28
2018-11-13T01:46:07.851Z,101900.58
2018-11-13T01:48:36.403Z,101883.77
2018-11-13T01:51:04.889Z,101868.02
2018-11-13T01:53:33.253Z,101885.86
2018-11-13T01:56:02.296Z,101870.44
2018-11-13T01:58:30.702Z,101875.20
2018-11-13T02:00:59.708Z,101884.85
2018-11-13T02:03:28.090Z,101899.50
2018-11-13T02:05:56.446Z,101912.61
2018-11-13T02:08:24.799Z,101923.79
2018-11-13T02:10:54.750Z,101913.48
2018-11-13T02:13:23.081Z,101906.99
2018-11-13T02:15:52.390Z,101911.87
2018-11-13T02:18:22.971Z,101900.38
2018-11-13T02:20:51.416Z,101899.23
2018-11-13T02:23:19.807Z,101900.20
2018-11-13T02:25:48.256Z,101901.39
2018-11-13T02:28:16.620Z,101897.64
2018-11-13T02:30:45.005Z,101903.23
2018-11-13T02:33:13.875Z,101907.48
2018-11-13T02:35:42.493Z,101907.44
2018-11-13T02:38:10.821Z,101913.87
2018-11-13T02:40:39.918Z,101903.92
2018-11-13T02:43:08.303Z,101903.23
2018-11-13T02:45:36.747Z,101915.41
2018-11-13T02:48:05.465Z,101910.53
2018-11-13T02:50:33.821Z,101902.20
2018-11-13T02:53:02.177Z,101897.59
2018-11-13T02:55:30.508Z,101888.58
2018-11-13T02:57:59.008Z,101895.46
2018-11-13T03:00:27.314Z,101900.41
2018-11-13T03:02:56.300Z,101903.08
2018-11-13T03:05:24.746Z,101896.16
2018-11-13T03:07:53.144Z,101892.95
2018-11-13T03:10:22.545Z,101907.69
2018-11-13T03:12:51.019Z,101906.00
2018-11-13T03:15:20.127Z,101907.56
2018-11-13T03:17:49.573Z,101911.84
2018-11-13T03:20:19.072Z,101911.77
2018-11-13T03:22:48.101Z,101923.38
2018-11-13T03:25:21.303Z,101905.82
2018-11-13T03:27:49.709Z,101897.98
2018-11-13T03:30:23.871Z,101910.86
2018-11-13T03:32:53.188Z,101911.10
2018-11-13T03:35:21.579Z,101916.07
2018-11-13T03:37:49.995Z,101905.92
2018-11-13T03:40:18.465Z,101907.55
2018-11-13T03:42:48.479Z,101901.91
2018-11-13T03:45:21.434Z,101899.28
2018-11-13T03:47:49.987Z,101893.03
2018-11-13T03:50:20.466Z,101897.21
2018-11-13T03:52:50.353Z,101892.20
2018-11-13T03:55:19.503Z,101896.37
2018-11-13T03:57:48.805Z,101894.56
2018-11-13T04:00:20.647Z,101896.82
2018-11-13T04:02:49.728Z,101899.31
2018-11-13T04:05:20.592Z,101901.80
2018-11-13T04:07:51.426Z,101914.14
2018-11-13T04:10:21.137Z,101905.30
2018-11-13T04:12:49.658Z,101907.80
2018-11-13T04:15:20.707Z,101920.08
2018-11-13T04:17:50.807Z,101911.66
2018-11-13T04:20:20.336Z,101916.91
2018-11-13T04:22:48.993Z,101921.16
2018-11-13T04:25:18.070Z,101923.45
2018-11-13T04:27:46.490Z,101934.25
2018-11-13T04:30:16.096Z,101944.59
2018-11-13T04:32:44.593Z,101938.23
2018-11-13T04:35:17.290Z,101935.33
2018-11-13T04:37:45.793Z,101932.94
2018-11-13T04:40:16.480Z,101937.64
2018-11-13T04:42:46.828Z,101935.61
2018-11-13T04:45:17.224Z,101936.09
2018-11-13T04:47:47.064Z,101939.13
2018-11-13T04:50:16.402Z,101935.91
2018-11-13T04:52:44.984Z,101931.28
2018-11-13T04:55:13.625Z,101944.98
2018-11-13T04:57:42.867Z,101943.52
2018-11-13T05:00:15.970Z,101949.31
2018-11-13T05:02:45.085Z,101948.23
2018-11-13T05:05:14.501Z,101954.78
2018-11-13T05:07:45.529Z,101958.13
2018-11-13T05:10:14.050Z,101960.44
2018-11-13T05:12:43.418Z,101963.88
2018-11-13T05:15:11.840Z,101962.77
2018-11-13T05:17:40.932Z,101965.05
2018-11-13T05:20:10.585Z,101965.98
2018-11-13T05:22:39.131Z,101975.30
2018-11-13T05:25:10.501Z,101985.48
2018-11-13T05:27:39.565Z,101978.47
2018-11-13T05:30:22.009Z,101980.52
2018-11-13T05:32:51.148Z,101976.26
2018-11-13T05:35:20.502Z,101981.67
2018-11-13T05:37:49.835Z,101977.08
2018-11-13T05:40:20.454Z,101980.72
2018-11-13T05:42:48.843Z,101980.92
2018-11-13T05:45:19.412Z,101989.39
2018-11-13T05:47:47.752Z,101993.02
2018-11-13T05:50:16.875Z,101991.75
2018-11-13T05:52:46.383Z,101994.36
2018-11-13T05:55:16.072Z,102000.70
2018-11-13T05:57:45.036Z,102001.36
2018-11-13T06:00:30.975Z,102001.02
2018-11-13T06:02:59.827Z,102010.59
2018-11-13T06:05:28.171Z,102009.63
2018-11-13T06:07:56.739Z,102013.19
2018-11-13T06:10:24.995Z,102020.26
2018-11-13T06:12:53.267Z,102026.44
2018-11-13T06:15:21.985Z,102020.55
2018-11-13T06:17:50.320Z,102019.28
2018-11-13T06:20:18.677Z,102030.59
2018-11-13T06:22:47.295Z,102025.23
2018-11-13T06:25:16.732Z,102022.70
2018-11-13T06:27:46.273Z,102025.52
2018-11-13T06:30:17.562Z,102028.84
2018-11-13T06:32:46.358Z,102032.28
2018-11-13T06:35:14.661Z,102023.02
2018-11-13T06:37:43.076Z,102027.94
2018-11-13T06:40:11.604Z,102033.59
2018-11-13T06:42:40.300Z,102037.00
2018-11-13T06:45:11.789Z,102037.11
2018-11-13T06:47:40.483Z,102035.27
2018-11-13T06:50:09.985Z,102047.47
2018-11-13T06:52:38.300Z,102045.33
2018-11-13T06:55:13.116Z,102051.95
2018-11-13T06:57:41.556Z,102049.70
2018-11-13T07:00:10.467Z,102058.55
2018-11-13T07:02:39.148Z,102063.50
2018-11-13T07:05:11.676Z,102054.77
2018-11-13T07:07:40.557Z,102057.46
2018-11-13T07:10:11.245Z,102067.69
2018-11-13T07:12:40.689Z,102077.12
2018-11-13T07:15:11.323Z,102078.84
2018-11-13T07:17:40.013Z,102083.12
2018-11-13T07:20:08.458Z,102077.99
2018-11-13T07:22:36.838Z,102080.17
2018-11-13T07:25:05.427Z,102081.35
2018-11-13T07:27:33.949Z,102087.91
2018-11-13T07:30:02.315Z,102092.78
2018-11-13T07:32:31.222Z,102091.70
2018-11-13T07:34:59.588Z,102101.54
2018-11-13T07:37:28.053Z,102106.14
2018-11-13T07:39:56.280Z,102109.03
2018-11-13T07:42:24.657Z,102122.55
2018-11-13T07:44:53.065Z,102122.84
2018-11-13T07:47:21.377Z,102131.45
2018-11-13T07:49:49.939Z,102125.80
2018-11-13T07:52:18.247Z,102128.70
2018-11-13T07:54:46.520Z,102143.28
2018-11-13T07:57:14.934Z,102140.19
2018-11-13T07:59:43.252Z,102151.02
2018-11-13T08:02:12.183Z,102140.59
2018-11-13T08:04:40.549Z,102144.96
2018-11-13T08:07:08.984Z,102149.83
2018-11-13T08:09:37.462Z,102149.00
2018-11-13T08:12:05.791Z,102156.87
2018-11-13T08:14:34.209Z,102163.73
2018-11-13T08:17:02.664Z,102159.65
2018-11-13T08:19:31.070Z,102158.73
2018-11-13T08:21:59.403Z,102150.05
2018-11-13T08:24:27.812Z,102154.12
2018-11-13T08:26:56.256Z,102162.97
2018-11-13T08:29:24.557Z,102160.42
2018-11-13T08:31:52.998Z,102168.55
2018-11-13T08:34:21.287Z,102172.09
2018-11-13T08:36:49.694Z,102168.32
2018-11-13T08:39:17.912Z,102171.87
2018-11-13T08:41:46.207Z,102169.17
2018-11-13T08:44:14.635Z,102170.53
2018-11-13T08:46:42.819Z,102181.84
2018-11-13T08:49:11.077Z,102179.64
2018-11-13T08:51:39.483Z,102181.84
2018-11-13T08:54:07.884Z,102190.44
2018-11-13T08:56:36.104Z,102190.02
2018-11-13T08:59:04.656Z,102184.83
2018-11-13T09:01:32.865Z,102194.77
2018-11-13T09:04:01.135Z,102191.36
2018-11-13T09:06:29.508Z,102189.00
2018-11-13T09:08:57.752Z,102199.75
2018-11-13T09:11:25.964Z,102205.72
2018-11-13T09:13:54.392Z,102209.64
2018-11-13T09:16:22.655Z,102213.84
2018-11-13T09:18:51.045Z,102213.11
2018-11-13T09:21:19.459Z,102208.38
2018-11-13T09:23:47.749Z,102228.28
2018-11-13T09:26:16.029Z,102231.96
2018-11-13T09:28:44.477Z,102229.49
2018-11-13T09:31:12.936Z,102241.85
2018-11-13T09:33:41.524Z,102234.63
2018-11-13T09:36:09.899Z,102243.94
2018-11-13T09:38:38.255Z,102234.56
2018-11-13T09:41:06.671Z,102251.27
2018-11-13T09:43:34.936Z,102255.51
2018-11-13T09:46:04.468Z,102253.27
2018-11-13T09:48:32.797Z,102258.77
2018-11-13T09:51:01.163Z,102260.95
2018-11-13T09:53:29.603Z,102258.50
2018-11-13T09:55:57.880Z,102261.02
2018-11-13T09:58:26.333Z,102269.25
2018-11-13T10:00:54.939Z,102269.92
2018-11-13T10:03:23.825Z,102271.60
2018-11-13T10:05:51.700Z,102279.41
2018-11-13T10:08:19.934Z,102273.77
2018-11-13T10:10:48.288Z,102275.34
2018-11-13T10:13:16.622Z,102267.48
2018-11-13T10:15:44.898Z,102272.53
2018-11-13T10:18:13.296Z,102282.36
2018-11-13T10:20:41.677Z,102281.89
2018-11-13T10:23:10.127Z,102293.73
2018-11-13T10:25:38.421Z,102286.11
2018-11-13T10:28:06.809Z,102285.91
2018-11-13T10:30:35.287Z,102290.69
2018-11-13T10:33:03.624Z,102294.75
2018-11-13T10:35:31.875Z,102299.62
2018-11-13T10:38:00.237Z,102295.09
2018-11-13T10:40:28.632Z,102302.39
2018-11-13T10:42:56.960Z,102306.48
2018-11-13T10:45:26.669Z,102307.44
2018-11-13T10:47:55.809Z,102308.03
2018-11-13T10:50:25.430Z,102310.32
2018-11-13T10:52:53.911Z,102310.17
2018-11-13T10:55:22.376Z,102318.59
2018-11-13T10:57:50.801Z,102320.44
2018-11-13T11:00:24.908Z,102317.95
2018-11-13T11:02:59.166Z,102315.20
2018-11-13T11:05:28.156Z,102321.53
2018-11-13T11:07:57.655Z,102321.87
2018-11-13T11:10:26.112Z,102320.20
2018-11-13T11:12:54.633Z,102324.13
2018-11-13T11:15:23.151Z,102331.61
2018-11-13T11:17:51.661Z,102330.54
2018-11-13T11:20:20.218Z,102347.00
2018-11-13T11:22:54.904Z,102336.95
2018-11-13T11:25:23.486Z,102339.73
2018-11-13T11:27:52.872Z,102330.34
2018-11-13T11:30:21.339Z,102347.59
2018-11-13T11:32:49.759Z,102348.07
2018-11-13T11:35:18.213Z,102349.73
2018-11-13T11:37:46.812Z,102346.55
2018-11-13T11:40:15.216Z,102341.60
2018-11-13T11:42:44.532Z,102340.34
2018-11-13T11:45:13.820Z,102339.41
2018-11-13T11:47:42.839Z,102341.48
2018-11-13T11:50:13.920Z,102349.20
2018-11-13T11:52:42.434Z,102349.89
2018-11-13T11:55:11.774Z,102360.09
2018-11-13T11:57:40.147Z,102363.00
2018-11-13T12:00:12.223Z,102364.11
2018-11-13T12:02:41.305Z,102368.34
2018-11-13T12:05:10.046Z,102374.89
2018-11-13T12:07:38.509Z,102372.81
2018-11-13T12:10:09.973Z,102370.52
2018-11-13T12:12:38.767Z,102379.59
2018-11-13T12:15:09.219Z,102403.69
2018-11-13T12:17:37.745Z,102406.41
2018-11-13T12:20:09.124Z,102402.53
2018-11-13T12:22:37.484Z,102393.78
2018-11-13T12:25:09.916Z,102399.34
2018-11-13T12:27:38.392Z,102389.55
2018-11-13T12:30:11.221Z,102399.11
2018-11-13T12:32:39.629Z,102401.41
2018-11-13T12:35:10.265Z,102406.03
2018-11-13T12:37:38.774Z,102411.30
2018-11-13T12:40:10.466Z,102404.41
2018-11-13T12:42:38.993Z,102409.95
2018-11-13T12:45:08.120Z,102418.52
2018-11-13T12:47:37.044Z,102418.28
2018-11-13T12:50:07.872Z,102419.86
2018-11-13T12:52:37.296Z,102432.50
2018-11-13T12:55:09.276Z,102417.17
2018-11-13T12:57:37.760Z,102433.91
2018-11-13T13:00:13.509Z,102439.45
2018-11-13T13:02:41.920Z,102431.15
2018-11-13T13:05:10.380Z,102436.20
2018-11-13T13:07:38.839Z,102433.37
2018-11-13T13:10:10.054Z,102434.63
2018-11-13T13:12:38.511Z,102439.02
2018-11-13T13:15:09.984Z,102444.15
2018-11-13T13:17:38.584Z,102447.35
2018-11-13T13:20:10.637Z,102443.33
2018-11-13T13:22:44.443Z,102445.16
2018-11-13T13:25:14.377Z,102453.62
2018-11-13T13:27:42.690Z,102444.98
2018-11-13T13:30:16.302Z,102458.69
2018-11-13T13:32:45.445Z,102463.13
2018-11-13T13:35:54.773Z,102453.73
2018-11-13T13:38:23.106Z,102467.47
2018-11-13T13:40:52.595Z,102465.80
2018-11-13T13:43:21.770Z,102470.96
2018-11-13T13:45:50.443Z,102468.25
2018-11-13T13:48:19.061Z,102477.36
2018-11-13T13:50:47.459Z,102471.05
2018-11-13T13:53:17.093Z,102478.63
2018-11-13T13:55:45.825Z,102477.06
2018-11-13T13:58:14.945Z,102485.64
2018-11-13T14:00:43.406Z,102485.52
2018-11-13T14:03:12.920Z,102488.75
2018-11-13T14:05:44.895Z,102492.68
2018-11-13T14:08:14.156Z,102507.22
2018-11-13T14:10:42.419Z,102503.86
2018-11-13T14:13:11.083Z,102500.13
2018-11-13T14:15:39.493Z,102504.29
2018-11-13T14:18:07.867Z,102505.17
2018-11-13T14:20:36.804Z,102503.88
2018-11-13T14:23:05.281Z,102515.18
2018-11-13T14:25:33.526Z,102517.28
2018-11-13T14:28:01.929Z,102526.75
2018-11-13T14:30:31.470Z,102532.30
2018-11-13T14:33:01.206Z,102530.13
2018-11-13T14:35:29.536Z,102531.26
2018-11-13T14:37:58.080Z,102540.33
2018-11-13T14:40:30.985Z,102536.59
2018-11-13T14:42:59.761Z,102532.86
2018-11-13T14:45:28.438Z,102548.29
2018-11-13T14:47:57.055Z,102555.70
2018-11-13T14:50:28.038Z,102569.91
2018-11-13T14:52:56.820Z,102570.53
2018-11-13T14:55:30.932Z,102577.49
2018-11-13T14:58:00.428Z,102575.33
2018-11-13T15:00:29.899Z,102579.92
2018-11-13T15:02:58.873Z,102580.56
2018-11-13T15:05:28.016Z,102589.22
2018-11-13T15:07:57.864Z,102588.95
2018-11-13T15:10:33.738Z,102596.67
2018-11-13T15:13:02.052Z,102597.92
2018-11-13T15:15:30.393Z,102606.12
2018-11-13T15:17:58.873Z,102610.70
2018-11-13T15:20:27.178Z,102612.25
2018-11-13T15:22:55.431Z,102615.38
2018-11-13T15:25:24.042Z,102616.37
2018-11-13T15:27:52.438Z,102620.37
2018-11-13T15:30:24.048Z,102629.14
2018-11-13T15:32:58.467Z,102626.45
2018-11-13T15:35:26.840Z,102634.89
2018-11-13T15:37:55.061Z,102637.38
2018-11-13T15:40:25.776Z,102647.35
2018-11-13T15:42:53.992Z,102649.15
2018-11-13T15:45:22.280Z,102654.83
2018-11-13T15:47:51.488Z,102647.35
2018-11-13T15:50:22.896Z,102652.09
2018-11-13T15:52:51.311Z,102654.87
2018-11-13T15:55:19.519Z,102653.24
2018-11-13T15:57:48.107Z,102652.83
2018-11-13T16:00:20.623Z,102661.29
2018-11-13T16:02:49.149Z,102663.25
2018-11-13T16:05:22.832Z,102656.55
2018-11-13T16:07:52.702Z,102668.22
2018-11-13T16:10:20.949Z,102668.31
2018-11-13T16:12:49.533Z,102670.80
2018-11-13T16:15:19.826Z,102673.56
2018-11-13T16:17:48.882Z,102673.11
2018-11-13T16:20:17.487Z,102682.12
2018-11-13T16:22:45.827Z,102683.20
2018-11-13T16:25:14.204Z,102684.40
2018-11-13T16:27:42.558Z,102689.85
2018-11-13T16:30:13.511Z,102697.89
2018-11-13T16:32:42.733Z,102694.94
2018-11-13T16:35:12.548Z,102696.39
2018-11-13T16:37:42.335Z,102701.33
2018-11-13T16:40:14.374Z,102704.56
2018-11-13T16:42:42.826Z,102703.44
2018-11-13T16:45:12.741Z,102706.62
2018-11-13T16:47:41.075Z,102706.31
2018-11-13T16:50:14.642Z,102707.88
2018-11-13T16:52:43.298Z,102709.58
2018-11-13T16:55:16.208Z,102715.98
2018-11-13T16:57:44.588Z,102718.89
2018-11-13T17:00:12.990Z,102729.20
2018-11-13T17:02:41.246Z,102730.52
2018-11-13T17:05:12.089Z,102728.13
2018-11-13T17:07:40.849Z,102734.73
2018-11-13T17:10:12.915Z,102735.29
2018-11-13T17:12:41.367Z,102733.60
2018-11-13T17:15:14.024Z,102738.14
2018-11-13T17:17:43.179Z,102741.67
2018-11-13T17:20:12.461Z,102746.20
2018-11-13T17:22:41.239Z,102747.20
2018-11-13T17:25:10.785Z,102753.20
2018-11-13T17:27:40.371Z,102750.95
2018-11-13T17:30:19.405Z,102754.49
2018-11-13T17:32:47.770Z,102759.24
2018-11-13T17:35:17.380Z,102760.34
2018-11-13T17:37:46.479Z,102763.64
2018-11-13T17:40:20.324Z,102766.76
2018-11-13T17:42:49.590Z,102774.72
2018-11-13T17:45:21.106Z,102770.88
2018-11-13T17:47:49.404Z,102768.96
2018-11-13T17:50:21.083Z,102772.52
2018-11-13T17:52:49.813Z,102776.16
2018-11-13T17:55:18.780Z,102779.16
2018-11-13T17:57:48.361Z,102778.94
2018-11-13T18:00:20.835Z,102781.83
2018-11-13T18:02:49.410Z,102778.95
2018-11-13T18:05:19.077Z,102789.02
2018-11-13T18:07:47.640Z,102785.33
2018-11-13T18:10:16.081Z,102784.91
2018-11-13T18:12:44.391Z,102787.41
2018-11-13T18:15:14.367Z,102793.28
2018-11-13T18:17:43.139Z,102797.72
2018-11-13T18:20:14.252Z,102801.27
2018-11-13T18:22:43.156Z,102801.91
2018-11-13T18:25:11.534Z,102805.16
2018-11-13T18:27:41.416Z,102806.85
2018-11-13T18:30:15.017Z,102814.11
2018-11-13T18:32:43.961Z,102813.80
2018-11-13T18:35:14.915Z,102808.18
2018-11-13T18:37:43.954Z,102815.88
2018-11-13T18:40:14.665Z,102814.07
2018-11-13T18:42:44.775Z,102818.97
2018-11-13T18:45:17.550Z,102818.39
2018-11-13T18:47:46.408Z,102820.36
2018-11-13T18:50:17.880Z,102829.21
2018-11-13T18:52:46.684Z,102826.73
2018-11-13T18:55:15.721Z,102825.50
2018-11-13T18:57:44.258Z,102820.02
2018-11-13T19:00:16.657Z,102820.77
2018-11-13T19:02:44.971Z,102817.02
2018-11-13T19:05:14.069Z,102824.77
2018-11-13T19:07:42.859Z,102826.56
2018-11-13T19:10:20.545Z,102832.07
2018-11-13T19:12:50.657Z,102833.37
2018-11-13T19:15:19.464Z,102832.46
2018-11-13T19:17:47.870Z,102832.42
2018-11-13T19:20:18.034Z,102829.91
2018-11-13T19:22:46.263Z,102831.64
2018-11-13T19:25:16.995Z,102831.22
2018-11-13T19:27:46.224Z,102842.70
2018-11-13T19:30:15.550Z,102847.57
2018-11-13T19:32:43.878Z,102850.42
2018-11-13T19:35:15.389Z,102848.45
2018-11-13T19:37:43.923Z,102853.10
2018-11-13T19:40:15.546Z,102852.41
2018-11-13T19:42:44.648Z,102852.56
2018-11-13T19:45:13.161Z,102857.28
2018-11-13T19:47:41.468Z,102851.77
2018-11-13T19:50:12.896Z,102858.46
2018-11-13T19:52:41.727Z,102854.84
2018-11-13T19:55:11.293Z,102861.34
2018-11-13T19:57:40.175Z,102872.76
2018-11-13T20:00:12.457Z,102869.81
2018-11-13T20:02:40.744Z,102868.72
2018-11-13T20:05:11.514Z,102872.58
2018-11-13T20:07:39.944Z,102872.76
2018-11-13T20:10:13.815Z,102874.86
2018-11-13T20:12:42.276Z,102878.20
2018-11-13T20:15:11.567Z,102882.09
2018-11-13T20:17:40.061Z,102885.05
2018-11-13T20:20:11.970Z,102886.81
2018-11-13T20:22:40.529Z,102886.75
2018-11-13T20:25:12.240Z,102892.78
2018-11-13T20:27:40.823Z,102897.80
2018-11-13T20:30:16.884Z,102893.70
2018-11-13T20:32:45.880Z,102896.19
2018-11-13T20:35:14.158Z,102900.91
2018-11-13T20:37:43.743Z,102906.25
2018-11-13T20:40:13.798Z,102905.73
2018-11-13T20:42:42.929Z,102905.88
2018-11-13T20:45:11.793Z,102909.44
2018-11-13T20:47:40.268Z,102906.59
2018-11-13T20:50:11.452Z,102911.67
2018-11-13T20:52:39.854Z,102906.67
2018-11-13T20:55:08.674Z,102918.02
2018-11-13T20:57:37.076Z,102916.68
2018-11-13T21:00:16.720Z,102921.45
2018-11-13T21:02:45.077Z,102915.77
2018-11-13T21:05:13.677Z,102923.42
2018-11-13T21:07:42.111Z,102923.70
2018-11-13T21:10:14.041Z,102931.72
2018-11-13T21:12:42.955Z,102928.66
2018-11-13T21:15:13.821Z,102927.11
2018-11-13T21:17:42.079Z,102930.45
2018-11-13T21:20:13.389Z,102929.91
2018-11-13T21:22:41.728Z,102935.48
2018-11-13T21:25:12.764Z,102926.58
2018-11-13T21:27:41.406Z,102929.59
2018-11-13T21:30:18.402Z,102926.30
2018-11-13T21:32:47.270Z,102932.03
2018-11-13T21:35:16.019Z,102930.62
2018-11-13T21:37:45.706Z,102932.86
2018-11-13T21:40:15.320Z,102929.94
2018-11-13T21:42:44.761Z,102929.77
2018-11-13T21:45:13.690Z,102925.55
2018-11-13T21:47:42.415Z,102931.07
2018-11-13T21:50:14.859Z,102940.02
2018-11-13T21:52:43.107Z,102931.98
2018-11-13T21:55:14.146Z,102939.03
2018-11-13T21:57:42.625Z,102948.47
2018-11-13T22:00:30.300Z,102945.46
2018-11-13T22:03:02.778Z,102946.08
2018-11-13T22:05:31.734Z,102950.97
2018-11-13T22:08:00.040Z,102953.15
2018-11-13T22:10:28.595Z,102953.50
2018-11-13T22:12:57.020Z,102958.38
2018-11-13T22:15:26.444Z,102955.23
2018-11-13T22:17:54.819Z,102954.83
2018-11-13T22:20:23.729Z,102958.22
2018-11-13T22:22:53.865Z,102963.51
2018-11-13T22:25:23.652Z,102959.55
2018-11-13T22:27:53.341Z,102963.21
2018-11-13T22:30:26.880Z,102959.10
2018-11-13T22:32:55.890Z,102955.20
2018-11-13T22:35:24.356Z,102965.72
2018-11-13T22:37:52.607Z,102961.34
2018-11-13T22:40:22.139Z,102956.12
2018-11-13T22:42:51.099Z,102947.84
2018-11-13T22:45:20.796Z,102956.01
2018-11-13T22:47:48.993Z,102959.50
2018-11-13T22:50:18.875Z,102954.78
2018-11-13T22:52:47.444Z,102961.45
2018-11-13T22:55:16.117Z,102955.27
2018-11-13T22:57:45.016Z,102955.37
2018-11-13T23:00:19.942Z,102955.31
2018-11-13T23:02:49.641Z,102954.32
2018-11-13T23:05:18.110Z,102954.20
2018-11-13T23:07:47.228Z,102949.73
2018-11-13T23:10:16.062Z,102948.16
2018-11-13T23:12:44.662Z,102951.81
2018-11-13T23:15:14.508Z,102958.22
2018-11-13T23:17:43.121Z,102953.09
2018-11-13T23:20:13.365Z,102955.39
2018-11-13T23:22:41.643Z,102947.08
2018-11-13T23:25:11.913Z,102950.09
2018-11-13T23:27:40.698Z,102950.20
2018-11-13T23:30:13.355Z,102950.09
2018-11-13T23:32:41.778Z,102950.55
2018-11-13T23:35:10.935Z,102953.99
2018-11-13T23:37:39.471Z,102956.50
2018-11-13T23:40:10.383Z,102956.10
2018-11-13T23:42:40.347Z,102956.16
2018-11-13T23:45:09.277Z,102956.70
2018-11-13T23:47:37.638Z,102956.25
2018-11-13T23:50:06.962Z,102956.78
2018-11-13T23:52:35.245Z,102959.03
2018-11-13T23:55:03.738Z,102966.71
2018-11-13T23:57:31.927Z,102971.95
